createdAt,value
2022-08-04T00:01:46.903Z,23.09
2022-08-04T00:04:28.226Z,23.05
2022-08-04T00:07:09.505Z,23.03
2022-08-04T00:09:49.869Z,23.00
2022-08-04T00:12:29.437Z,22.99
2022-08-04T00:15:06.237Z,22.97
2022-08-04T00:17:42.547Z,22.96
2022-08-04T00:20:23.998Z,22.92
2022-08-04T00:22:57.073Z,22.89
2022-08-04T00:25:29.761Z,22.88
2022-08-04T00:28:03.124Z,22.86
2022-08-04T00:30:35.242Z,22.85
2022-08-04T00:33:08.040Z,22.80
2022-08-04T00:35:41.537Z,22.78
2022-08-04T00:38:15.059Z,22.77
2022-08-04T00:40:55.843Z,22.76
2022-08-04T00:43:34.120Z,22.72
2022-08-04T00:46:35.895Z,22.69
2022-08-04T00:49:31.823Z,22.66
2022-08-04T00:52:31.805Z,22.65
2022-08-04T00:55:31.557Z,22.63
2022-08-04T00:58:24.632Z,22.62
2022-08-04T01:01:03.029Z,22.62
2022-08-04T01:03:50.785Z,22.61
2022-08-04T01:06:32.514Z,22.60
2022-08-04T01:09:21.576Z,22.59
2022-08-04T01:12:09.629Z,22.58
2022-08-04T01:14:55.286Z,22.57
2022-08-04T01:17:37.512Z,22.55
2022-08-04T01:20:10.843Z,22.54
2022-08-04T01:23:30.353Z,22.52
2022-08-04T01:26:43.735Z,22.49
2022-08-04T01:29:22.214Z,22.45
2022-08-04T01:32:04.594Z,22.42
2022-08-04T01:34:44.009Z,22.38
2022-08-04T01:37:30.300Z,22.35
2022-08-04T01:40:08.170Z,22.34
2022-08-04T01:42:40.205Z,22.30
2022-08-04T01:45:15.461Z,22.26
2022-08-04T01:47:53.064Z,22.24
2022-08-04T01:50:28.034Z,22.22
2022-08-04T01:52:59.983Z,22.21
2022-08-04T01:55:52.014Z,22.20
2022-08-04T01:58:25.497Z,22.21
2022-08-04T02:01:05.106Z,22.21
2022-08-04T02:04:20.547Z,22.21
2022-08-04T02:06:48.462Z,22.19
2022-08-04T02:09:53.863Z,22.19
2022-08-04T02:12:41.012Z,22.17
2022-08-04T02:15:25.240Z,22.14
2022-08-04T02:18:02.207Z,22.09
2022-08-04T02:20:39.186Z,22.07
2022-08-04T02:23:15.256Z,22.04
2022-08-04T02:25:50.102Z,22.00
2022-08-04T02:28:34.629Z,21.97
2022-08-04T02:31:28.679Z,21.93
2022-08-04T02:34:07.747Z,21.87
2022-08-04T02:36:41.354Z,21.83
2022-08-04T02:39:14.957Z,21.78
2022-08-04T02:41:47.971Z,21.76
2022-08-04T02:44:24.093Z,21.74
2022-08-04T02:46:56.564Z,21.71
2022-08-04T02:49:33.601Z,21.70
2022-08-04T02:52:08.392Z,21.69
2022-08-04T02:54:42.775Z,21.68
2022-08-04T02:57:15.725Z,21.63
2022-08-04T03:00:01.846Z,21.59
2022-08-04T03:02:43.944Z,21.57
2022-08-04T03:05:21.157Z,21.53
2022-08-04T03:08:25.601Z,21.50
2022-08-04T03:11:35.256Z,21.49
2022-08-04T03:14:42.432Z,21.49
2022-08-04T03:17:53.158Z,21.49
2022-08-04T03:20:47.999Z,21.50
2022-08-04T03:23:52.025Z,21.49
2022-08-04T03:26:46.080Z,21.48
2022-08-04T03:29:55.348Z,21.47
2022-08-04T03:32:59.889Z,21.48
2022-08-04T03:35:53.413Z,21.47
2022-08-04T03:38:55.688Z,21.49
2022-08-04T03:41:55.088Z,21.51
2022-08-04T03:44:53.777Z,21.57
2022-08-04T03:47:49.759Z,21.61
2022-08-04T03:50:43.345Z,21.68
2022-08-04T03:53:36.671Z,21.72
2022-08-04T03:56:38.374Z,21.78
2022-08-04T03:59:25.843Z,21.81
2022-08-04T04:02:22.830Z,21.84
2022-08-04T04:05:14.216Z,21.86
2022-08-04T04:08:12.535Z,21.92
2022-08-04T04:11:17.133Z,22.01
2022-08-04T04:13:56.908Z,22.08
2022-08-04T04:17:05.383Z,22.17
2022-08-04T04:20:10.875Z,22.29
2022-08-04T04:23:10.273Z,23.04
2022-08-04T04:25:56.612Z,25.05
2022-08-04T04:28:45.461Z,26.89
2022-08-04T04:31:27.483Z,28.53
2022-08-04T04:34:10.673Z,29.99
2022-08-04T04:36:51.791Z,31.28
2022-08-04T04:39:33.815Z,32.54
2022-08-04T04:42:26.620Z,33.59
2022-08-04T04:45:23.366Z,34.62
2022-08-04T04:48:09.254Z,35.52
2022-08-04T04:51:00.681Z,36.30
2022-08-04T04:53:39.479Z,37.06
2022-08-04T04:56:17.773Z,37.59
2022-08-04T04:58:51.888Z,38.14
2022-08-04T05:01:47.449Z,38.60
2022-08-04T05:04:35.203Z,39.17
2022-08-04T05:07:40.119Z,39.51
2022-08-04T05:10:29.585Z,38.28
2022-08-04T05:14:35.505Z,37.12
2022-08-04T05:16:17.933Z,37.16
2022-08-04T05:19:10.832Z,38.01
2022-08-04T05:21:48.269Z,38.54
2022-08-04T05:24:27.116Z,38.77
2022-08-04T05:27:10.486Z,38.59
2022-08-04T05:29:51.308Z,37.86
2022-08-04T05:32:28.469Z,36.99
2022-08-04T05:35:04.218Z,36.17
2022-08-04T05:37:39.510Z,35.32
2022-08-04T05:40:15.745Z,34.49
2022-08-04T05:42:49.316Z,33.83
2022-08-04T05:45:23.718Z,33.12
2022-08-04T05:47:55.956Z,32.46
2022-08-04T05:50:28.052Z,31.87
2022-08-04T05:53:07.117Z,31.31
2022-08-04T05:55:57.206Z,30.87
2022-08-04T05:58:32.388Z,30.41
2022-08-04T06:01:06.961Z,30.05
2022-08-04T06:03:40.623Z,29.74
2022-08-04T06:06:15.231Z,29.39
2022-08-04T06:08:47.135Z,29.10
2022-08-04T06:11:20.550Z,28.83
2022-08-04T06:13:55.445Z,28.63
2022-08-04T06:16:30.939Z,28.46
2022-08-04T06:20:02.830Z,28.30
2022-08-04T06:22:00.164Z,28.14
2022-08-04T06:24:33.290Z,27.93
2022-08-04T06:27:07.167Z,27.84
2022-08-04T06:29:50.835Z,27.77
2022-08-04T06:32:34.738Z,27.70
2022-08-04T06:35:12.172Z,27.63
2022-08-04T06:37:45.425Z,27.57
2022-08-04T06:40:30.486Z,27.53
2022-08-04T06:43:07.505Z,27.53
2022-08-04T06:45:41.420Z,27.56
2022-08-04T06:48:17.186Z,27.64
2022-08-04T06:51:30.340Z,27.72
2022-08-04T06:53:43.969Z,27.80
2022-08-04T06:56:17.935Z,27.86
2022-08-04T06:58:51.542Z,27.94
2022-08-04T07:01:24.214Z,28.02
2022-08-04T07:03:56.368Z,28.11
2022-08-04T07:06:28.452Z,28.20
2022-08-04T07:09:00.923Z,28.28
2022-08-04T07:11:39.252Z,28.37
2022-08-04T07:14:18.129Z,28.46
2022-08-04T07:16:52.114Z,28.50
2022-08-04T07:19:23.813Z,28.57
2022-08-04T07:22:16.315Z,28.69
2022-08-04T07:24:47.903Z,28.82
2022-08-04T07:27:47.928Z,28.93
2022-08-04T07:30:21.792Z,29.06
2022-08-04T07:32:57.250Z,29.17
2022-08-04T07:36:09.895Z,29.27
2022-08-04T07:38:27.522Z,29.37
2022-08-04T07:41:00.432Z,29.48
2022-08-04T07:43:33.480Z,29.60
2022-08-04T07:46:06.181Z,29.72
2022-08-04T07:48:38.889Z,29.83
2022-08-04T07:51:11.562Z,29.96
2022-08-04T07:53:53.291Z,30.07
2022-08-04T07:56:28.920Z,30.18
2022-08-04T07:59:01.397Z,30.25
2022-08-04T08:01:34.595Z,30.38
2022-08-04T08:04:09.297Z,30.48
2022-08-04T08:06:43.457Z,30.55
2022-08-04T08:09:22.103Z,30.64
2022-08-04T08:12:37.959Z,30.72
2022-08-04T08:14:50.995Z,30.83
2022-08-04T08:17:23.487Z,30.94
2022-08-04T08:19:55.461Z,31.04
2022-08-04T08:22:27.248Z,31.13
2022-08-04T08:24:59.158Z,31.22
2022-08-04T08:28:05.574Z,31.33
2022-08-04T08:30:37.304Z,31.45
2022-08-04T08:33:13.835Z,31.56
2022-08-04T08:35:54.810Z,31.64
2022-08-04T08:38:39.037Z,31.71
2022-08-04T08:41:37.389Z,31.83
2022-08-04T08:44:36.329Z,31.93
2022-08-04T08:47:29.674Z,31.97
2022-08-04T08:51:08.052Z,32.02
2022-08-04T08:53:59.478Z,32.05
2022-08-04T08:56:42.348Z,32.13
2022-08-04T08:59:46.070Z,32.20
2022-08-04T09:02:45.548Z,32.26
2022-08-04T09:05:39.627Z,32.32
2022-08-04T09:08:34.176Z,32.37
2022-08-04T09:11:10.882Z,32.40
2022-08-04T09:13:47.194Z,32.46
2022-08-04T09:16:23.415Z,32.53
2022-08-04T09:19:02.820Z,32.61
2022-08-04T09:21:38.662Z,32.69
2022-08-04T09:24:35.503Z,32.76
2022-08-04T09:27:11.109Z,32.86
2022-08-04T09:29:53.659Z,32.94
2022-08-04T09:32:34.030Z,33.04
2022-08-04T09:35:19.682Z,33.11
2022-08-04T09:38:13.300Z,33.18
2022-08-04T09:40:57.739Z,33.25
2022-08-04T09:44:42.937Z,33.31
2022-08-04T09:46:53.210Z,33.34
2022-08-04T09:49:31.277Z,33.29
2022-08-04T09:52:11.326Z,33.26
2022-08-04T09:54:46.469Z,33.30
2022-08-04T09:57:36.425Z,33.35
2022-08-04T10:00:09.580Z,33.41
2022-08-04T10:02:45.732Z,33.47
2022-08-04T10:05:22.766Z,33.53
2022-08-04T10:08:21.498Z,33.57
2022-08-04T10:11:08.716Z,33.65
2022-08-04T10:13:53.349Z,33.71
2022-08-04T10:16:36.870Z,33.74
2022-08-04T10:19:16.660Z,33.78
2022-08-04T10:22:28.797Z,33.84
2022-08-04T10:25:03.420Z,33.78
2022-08-04T10:27:39.556Z,33.81
2022-08-04T10:30:15.071Z,33.88
2022-08-04T10:32:52.260Z,33.88
2022-08-04T10:35:26.847Z,33.87
2022-08-04T10:38:08.453Z,33.90
2022-08-04T10:40:46.797Z,33.96
2022-08-04T10:43:31.226Z,33.95
2022-08-04T10:46:07.904Z,33.99
2022-08-04T10:48:45.871Z,33.96
2022-08-04T10:51:25.099Z,33.96
2022-08-04T10:54:01.622Z,34.02
2022-08-04T10:56:39.160Z,34.15
2022-08-04T10:59:17.498Z,34.25
2022-08-04T11:02:02.322Z,34.32
2022-08-04T11:04:43.577Z,34.34
2022-08-04T11:07:17.989Z,34.25
2022-08-04T11:09:50.391Z,34.17
2022-08-04T11:12:25.690Z,34.06
2022-08-04T11:15:01.401Z,34.04
2022-08-04T11:17:37.494Z,34.09
2022-08-04T11:20:34.592Z,34.19
2022-08-04T11:23:10.984Z,34.29
2022-08-04T11:25:52.486Z,34.36
2022-08-04T11:28:36.972Z,34.43
2022-08-04T11:31:15.361Z,34.49
2022-08-04T11:33:53.719Z,34.49
2022-08-04T11:36:35.852Z,34.55
2022-08-04T11:39:14.268Z,34.62
2022-08-04T11:41:58.794Z,34.65
2022-08-04T11:44:34.362Z,34.67
2022-08-04T11:47:20.287Z,34.70
2022-08-04T11:49:59.975Z,34.71
2022-08-04T11:52:34.751Z,34.77
2022-08-04T11:55:11.759Z,34.81
2022-08-04T11:57:44.409Z,34.81
2022-08-04T12:00:20.754Z,34.82
2022-08-04T12:03:07.668Z,34.80
2022-08-04T12:06:00.368Z,34.73
2022-08-04T12:08:50.109Z,34.68
2022-08-04T12:11:35.115Z,34.73
2022-08-04T12:14:21.028Z,34.79
2022-08-04T12:17:02.086Z,34.85
2022-08-04T12:20:03.479Z,34.91
2022-08-04T12:22:36.548Z,34.99
2022-08-04T12:25:17.827Z,35.04
2022-08-04T12:27:54.744Z,35.09
2022-08-04T12:30:57.412Z,35.11
2022-08-04T12:34:02.897Z,35.13
2022-08-04T12:36:30.555Z,35.14
2022-08-04T12:39:08.609Z,35.09
2022-08-04T12:41:46.688Z,34.98
2022-08-04T12:44:33.438Z,34.98
2022-08-04T12:47:27.131Z,34.84
2022-08-04T12:50:08.376Z,34.83
2022-08-04T12:53:04.329Z,34.80
2022-08-04T12:55:38.315Z,34.84
2022-08-04T12:58:42.697Z,34.93
2022-08-04T13:02:09.699Z,35.09
2022-08-04T13:04:11.674Z,35.12
2022-08-04T13:06:45.727Z,35.11
2022-08-04T13:09:22.196Z,35.03
2022-08-04T13:11:58.507Z,34.93
2022-08-04T13:14:37.751Z,34.93
2022-08-04T13:17:09.612Z,35.04
2022-08-04T13:19:47.507Z,35.20
2022-08-04T13:22:27.074Z,35.31
2022-08-04T13:26:40.624Z,35.32
2022-08-04T13:27:55.414Z,35.33
2022-08-04T13:30:33.289Z,35.31
2022-08-04T13:33:06.467Z,35.17
2022-08-04T13:35:55.182Z,35.12
2022-08-04T13:38:29.595Z,35.11
2022-08-04T13:41:03.984Z,35.11
2022-08-04T13:44:15.840Z,35.07
2022-08-04T13:46:45.710Z,35.03
2022-08-04T13:49:43.115Z,35.05
2022-08-04T13:52:15.037Z,35.12
2022-08-04T13:54:48.411Z,35.15
2022-08-04T13:57:32.418Z,35.15
2022-08-04T14:00:07.919Z,35.16
2022-08-04T14:02:44.939Z,35.16
2022-08-04T14:05:26.988Z,35.09
2022-08-04T14:08:04.808Z,34.94
2022-08-04T14:10:37.656Z,34.82
2022-08-04T14:13:09.702Z,34.76
2022-08-04T14:16:02.009Z,34.73
2022-08-04T14:18:35.661Z,34.75
2022-08-04T14:21:12.251Z,34.77
2022-08-04T14:23:50.740Z,34.76
2022-08-04T14:26:33.043Z,34.87
2022-08-04T14:29:27.025Z,35.03
2022-08-04T14:32:14.497Z,35.13
2022-08-04T14:34:47.625Z,35.19
2022-08-04T14:37:22.718Z,35.30
2022-08-04T14:40:07.816Z,35.39
2022-08-04T14:42:54.900Z,35.50
2022-08-04T14:45:37.113Z,35.50
2022-08-04T14:48:12.088Z,35.56
2022-08-04T14:50:45.350Z,35.54
2022-08-04T14:53:19.498Z,35.50
2022-08-04T14:55:53.429Z,35.39
2022-08-04T14:58:37.240Z,35.26
2022-08-04T15:01:14.657Z,35.13
2022-08-04T15:03:48.337Z,35.01
2022-08-04T15:06:27.129Z,34.90
2022-08-04T15:09:01.355Z,34.88
2022-08-04T15:11:33.180Z,34.91
2022-08-04T15:14:36.007Z,34.89
2022-08-04T15:17:08.483Z,34.79
2022-08-04T15:19:55.722Z,34.78
2022-08-04T15:22:28.075Z,34.77
2022-08-04T15:24:59.848Z,34.72
2022-08-04T15:27:35.128Z,34.66
2022-08-04T15:30:08.893Z,34.66
2022-08-04T15:32:50.596Z,34.60
2022-08-04T15:35:30.918Z,34.57
2022-08-04T15:38:10.640Z,34.59
2022-08-04T15:40:49.812Z,34.57
2022-08-04T15:43:41.921Z,34.37
2022-08-04T15:46:42.774Z,34.34
2022-08-04T15:49:21.588Z,34.33
2022-08-04T15:52:02.489Z,34.22
2022-08-04T15:54:36.190Z,34.10
2022-08-04T15:57:11.411Z,34.11
2022-08-04T16:00:14.691Z,34.04
2022-08-04T16:02:47.143Z,33.92
2022-08-04T16:05:36.946Z,33.82
2022-08-04T16:08:14.247Z,33.73
2022-08-04T16:10:50.837Z,33.71
2022-08-04T16:13:24.145Z,33.72
2022-08-04T16:16:03.109Z,33.70
2022-08-04T16:18:44.747Z,33.69
2022-08-04T16:21:26.753Z,33.67
2022-08-04T16:24:18.540Z,33.59
2022-08-04T16:26:56.456Z,33.52
2022-08-04T16:29:39.752Z,33.46
2022-08-04T16:32:14.026Z,33.40
2022-08-04T16:34:55.559Z,33.35
2022-08-04T16:37:35.695Z,33.30
2022-08-04T16:40:36.512Z,33.25
2022-08-04T16:43:13.358Z,33.18
2022-08-04T16:45:56.558Z,33.05
2022-08-04T16:48:30.314Z,32.97
2022-08-04T16:51:05.856Z,32.92
2022-08-04T16:53:53.172Z,32.84
2022-08-04T16:56:35.655Z,32.75
2022-08-04T16:59:12.759Z,32.65
2022-08-04T17:01:51.164Z,32.55
2022-08-04T17:04:31.582Z,32.45
2022-08-04T17:07:04.947Z,32.37
2022-08-04T17:09:36.804Z,32.29
2022-08-04T17:12:10.587Z,32.19
2022-08-04T17:14:42.208Z,32.11
2022-08-04T17:17:16.987Z,32.05
2022-08-04T17:19:54.389Z,32.02
2022-08-04T17:22:25.983Z,31.96
2022-08-04T17:25:02.006Z,31.92
2022-08-04T17:28:08.539Z,31.89
2022-08-04T17:30:31.624Z,31.87
2022-08-04T17:33:04.286Z,31.83
2022-08-04T17:35:40.530Z,31.78
2022-08-04T17:38:18.508Z,31.75
2022-08-04T17:41:00.186Z,31.72
2022-08-04T17:44:02.829Z,31.70
2022-08-04T17:46:42.040Z,31.68
2022-08-04T17:49:23.552Z,31.61
2022-08-04T17:52:06.822Z,31.57
2022-08-04T17:54:43.578Z,31.53
2022-08-04T17:57:21.265Z,31.48
2022-08-04T17:59:59.151Z,31.41
2022-08-04T18:02:35.066Z,31.35
2022-08-04T18:05:10.541Z,31.26
2022-08-04T18:08:46.277Z,31.12
2022-08-04T18:10:55.641Z,30.92
2022-08-04T18:13:29.138Z,30.74
2022-08-04T18:16:22.652Z,30.59
2022-08-04T18:19:11.857Z,30.41
2022-08-04T18:21:46.416Z,30.26
2022-08-04T18:24:55.430Z,30.12
2022-08-04T18:27:27.942Z,29.99
2022-08-04T18:30:34.124Z,29.87
2022-08-04T18:33:10.651Z,29.74
2022-08-04T18:36:35.231Z,29.63
2022-08-04T18:38:55.596Z,29.50
2022-08-04T18:42:01.497Z,29.39
2022-08-04T18:44:27.357Z,29.27
2022-08-04T18:47:19.770Z,29.18
2022-08-04T18:50:58.600Z,29.08
2022-08-04T18:52:45.685Z,28.97
2022-08-04T18:55:33.997Z,28.88
2022-08-04T18:58:12.803Z,28.80
2022-08-04T19:00:47.699Z,28.72
2022-08-04T19:03:23.526Z,28.64
2022-08-04T19:05:56.238Z,28.57
2022-08-04T19:08:33.381Z,28.50
2022-08-04T19:11:38.229Z,28.44
2022-08-04T19:14:00.373Z,28.37
2022-08-04T19:16:35.323Z,28.30
2022-08-04T19:19:09.080Z,28.25
2022-08-04T19:22:01.497Z,28.19
2022-08-04T19:24:34.196Z,28.13
2022-08-04T19:27:09.065Z,28.06
2022-08-04T19:29:43.054Z,28.01
2022-08-04T19:32:16.420Z,27.96
2022-08-04T19:34:48.906Z,27.90
2022-08-04T19:37:56.197Z,27.85
2022-08-04T19:40:15.151Z,27.79
2022-08-04T19:42:51.441Z,27.74
2022-08-04T19:45:25.425Z,27.68
2022-08-04T19:48:18.828Z,27.60
2022-08-04T19:50:51.743Z,27.54
2022-08-04T19:53:37.010Z,27.49
2022-08-04T19:56:10.386Z,27.44
2022-08-04T19:58:42.331Z,27.39
2022-08-04T20:01:33.444Z,27.34
2022-08-04T20:04:11.599Z,27.28
2022-08-04T20:06:45.634Z,27.22
2022-08-04T20:09:26.722Z,27.18
2022-08-04T20:11:59.599Z,27.12
2022-08-04T20:14:33.310Z,27.07
2022-08-04T20:17:09.878Z,27.02
2022-08-04T20:19:51.380Z,26.98
2022-08-04T20:22:51.229Z,26.93
2022-08-04T20:25:27.407Z,26.88
2022-08-04T20:28:07.560Z,26.84
2022-08-04T20:30:39.350Z,26.79
2022-08-04T20:33:13.826Z,26.74
2022-08-04T20:36:00.788Z,26.70
2022-08-04T20:38:37.639Z,26.66
2022-08-04T20:41:09.503Z,26.62
2022-08-04T20:43:41.156Z,26.58
2022-08-04T20:46:18.247Z,26.53
2022-08-04T20:49:00.624Z,26.49
2022-08-04T20:51:33.763Z,26.44
2022-08-04T20:54:16.480Z,26.39
2022-08-04T20:56:51.207Z,26.35
2022-08-04T20:59:23.494Z,26.33
2022-08-04T21:01:56.889Z,26.30
2022-08-04T21:04:35.856Z,26.24
2022-08-04T21:07:10.868Z,26.20
2022-08-04T21:09:50.978Z,26.17
2022-08-04T21:12:28.225Z,26.14
2022-08-04T21:15:13.135Z,26.10
2022-08-04T21:17:57.867Z,26.07
2022-08-04T21:20:39.510Z,26.03
2022-08-04T21:23:14.592Z,26.00
2022-08-04T21:25:50.961Z,25.96
2022-08-04T21:28:22.616Z,25.91
2022-08-04T21:30:57.375Z,25.87
2022-08-04T21:33:49.837Z,25.83
2022-08-04T21:36:22.593Z,25.79
2022-08-04T21:38:59.409Z,25.74
2022-08-04T21:41:32.040Z,25.72
2022-08-04T21:44:04.010Z,25.69
2022-08-04T21:46:42.479Z,25.66
2022-08-04T21:49:16.437Z,25.63
2022-08-04T21:51:58.489Z,25.61
2022-08-04T21:54:31.212Z,25.58
2022-08-04T21:57:04.224Z,25.55
2022-08-04T22:02:29.521Z,25.50
2022-08-04T22:05:01.153Z,25.47
2022-08-04T22:07:49.750Z,25.46
2022-08-04T22:10:32.801Z,25.43
2022-08-04T22:13:07.513Z,25.41
2022-08-04T22:16:03.550Z,25.38
2022-08-04T22:18:31.201Z,25.36
2022-08-04T22:21:02.997Z,25.32
2022-08-04T22:23:45.264Z,25.29
2022-08-04T22:26:26.353Z,25.27
2022-08-04T22:28:59.341Z,25.25
2022-08-04T22:31:55.888Z,25.23
2022-08-04T22:34:23.936Z,25.22
2022-08-04T22:36:55.900Z,25.19
2022-08-04T22:39:27.965Z,25.17
2022-08-04T22:42:03.317Z,25.15
2022-08-04T22:44:36.361Z,25.11
2022-08-04T22:47:20.689Z,25.10
2022-08-04T22:50:13.579Z,25.07
2022-08-04T22:52:49.746Z,25.03
2022-08-04T22:55:26.273Z,24.99
2022-08-04T22:58:17.915Z,24.95
2022-08-04T23:00:53.026Z,24.93
2022-08-04T23:03:36.522Z,24.89
2022-08-04T23:06:11.956Z,24.86
2022-08-04T23:08:48.375Z,24.83
2022-08-04T23:11:20.404Z,24.80
2022-08-04T23:13:52.378Z,24.77
2022-08-04T23:16:25.192Z,24.74
2022-08-04T23:18:59.788Z,24.71
2022-08-04T23:21:40.849Z,24.69
2022-08-04T23:24:13.154Z,24.66
2022-08-04T23:26:47.324Z,24.63
2022-08-04T23:29:19.381Z,24.60
2022-08-04T23:31:59.480Z,24.57
2022-08-04T23:34:32.407Z,24.54
2022-08-04T23:37:04.325Z,24.52
2022-08-04T23:40:03.315Z,24.49
2022-08-04T23:42:28.003Z,24.44
2022-08-04T23:45:01.021Z,24.38
2022-08-04T23:48:15.579Z,24.35
2022-08-04T23:50:24.965Z,24.33
2022-08-04T23:52:57.186Z,24.29
2022-08-04T23:55:31.848Z,24.27
2022-08-04T23:58:16.790Z,24.24
